Ashford, Alabama
Current Conditions -  °F | °C
As of 1:53 PM on Sunday 21 Dec 2014 (Local Time) from KDHN Reporting Station
Haze Haze  
Wind Chill: 54°   Ceiling: 800
Heat Index: 54°   Visibility: 4mi
Dew Point: 53°   Wind: 10mph
Humidity: 97%   Direction: 80°E
Pressure: 30.06"   Gusts: NA
Location:  31.18°N, 85.24°W
Report Text: KDHN 211953Z 08009KT 4SM BR OVC008 12/12 A3006 RMK AO2 RAB06E17 CIG 003V011 SLP179 P0000 T01220117
Loading
Personal Weather Stations






























Interactive Weather Map New forecast layout! Learn more

10-Day Weather Forecast

Advertisements
Track Severe Weather on mobile